sensor_id;sensor_type;location;lat;lon;timestamp;P1;durP1;ratioP1;P2;durP2;ratioP2
67516;SDS011;68821;59.134;37.894;2023-08-01T00:00:01;9.88;;;4.75;;
67516;SDS011;68821;59.134;37.894;2023-08-01T00:02:29;8.10;;;4.75;;
67516;SDS011;68821;59.134;37.894;2023-08-01T00:04:55;8.80;;;4.13;;
67516;SDS011;68821;59.134;37.894;2023-08-01T00:07:21;7.10;;;4.10;;
67516;SDS011;68821;59.134;37.894;2023-08-01T00:09:47;7.07;;;4.40;;
67516;SDS011;68821;59.134;37.894;2023-08-01T00:12:14;8.63;;;4.88;;
67516;SDS011;68821;59.134;37.894;2023-08-01T00:14:40;6.15;;;4.10;;
67516;SDS011;68821;59.134;37.894;2023-08-01T00:17:08;10.07;;;4.60;;
67516;SDS011;68821;59.134;37.894;2023-08-01T00:19:34;8.15;;;4.43;;
67516;SDS011;68821;59.134;37.894;2023-08-01T00:22:00;9.93;;;5.22;;
67516;SDS011;68821;59.134;37.894;2023-08-01T00:24:26;9.82;;;4.82;;
67516;SDS011;68821;59.134;37.894;2023-08-01T00:26:52;12.52;;;4.68;;
67516;SDS011;68821;59.134;37.894;2023-08-01T00:29:21;12.13;;;5.35;;
67516;SDS011;68821;59.134;37.894;2023-08-01T00:31:48;8.40;;;5.10;;
67516;SDS011;68821;59.134;37.894;2023-08-01T00:34:14;10.18;;;4.63;;
67516;SDS011;68821;59.134;37.894;2023-08-01T00:36:40;10.27;;;5.10;;
67516;SDS011;68821;59.134;37.894;2023-08-01T00:39:06;10.18;;;4.85;;
67516;SDS011;68821;59.134;37.894;2023-08-01T00:41:32;8.05;;;4.53;;
67516;SDS011;68821;59.134;37.894;2023-08-01T00:43:58;9.68;;;4.90;;
67516;SDS011;68821;59.134;37.894;2023-08-01T00:46:24;11.05;;;4.93;;
67516;SDS011;68821;59.134;37.894;2023-08-01T00:48:50;7.70;;;4.85;;
67516;SDS011;68821;59.134;37.894;2023-08-01T00:51:17;7.70;;;4.50;;
67516;SDS011;68821;59.134;37.894;2023-08-01T00:53:44;6.85;;;4.40;;
67516;SDS011;68821;59.134;37.894;2023-08-01T00:56:14;7.85;;;4.68;;
67516;SDS011;68821;59.134;37.894;2023-08-01T00:58:40;7.57;;;4.93;;
67516;SDS011;68821;59.134;37.894;2023-08-01T01:01:06;9.70;;;5.30;;
67516;SDS011;68821;59.134;37.894;2023-08-01T01:03:32;11.82;;;6.88;;
67516;SDS011;68821;59.134;37.894;2023-08-01T01:08:47;8.38;;;5.03;;
67516;SDS011;68821;59.134;37.894;2023-08-01T01:11:14;7.70;;;5.00;;
67516;SDS011;68821;59.134;37.894;2023-08-01T01:13:40;8.00;;;5.25;;
67516;SDS011;68821;59.134;37.894;2023-08-01T01:16:06;8.60;;;5.55;;
67516;SDS011;68821;59.134;37.894;2023-08-01T01:18:32;10.10;;;6.03;;
67516;SDS011;68821;59.134;37.894;2023-08-01T01:20:58;10.10;;;5.47;;
67516;SDS011;68821;59.134;37.894;2023-08-01T01:23:24;8.77;;;5.20;;
67516;SDS011;68821;59.134;37.894;2023-08-01T01:25:52;8.02;;;5.60;;
67516;SDS011;68821;59.134;37.894;2023-08-01T01:28:20;9.38;;;6.07;;
67516;SDS011;68821;59.134;37.894;2023-08-01T01:30:46;9.73;;;5.10;;
67516;SDS011;68821;59.134;37.894;2023-08-01T01:33:14;11.18;;;6.13;;
67516;SDS011;68821;59.134;37.894;2023-08-01T01:35:41;10.65;;;5.80;;
67516;SDS011;68821;59.134;37.894;2023-08-01T01:38:07;10.00;;;6.07;;
67516;SDS011;68821;59.134;37.894;2023-08-01T01:40:33;9.85;;;6.20;;
67516;SDS011;68821;59.134;37.894;2023-08-01T01:43:00;7.63;;;5.20;;
67516;SDS011;68821;59.134;37.894;2023-08-01T01:45:26;9.32;;;5.80;;
67516;SDS011;68821;59.134;37.894;2023-08-01T01:47:52;10.43;;;5.35;;
67516;SDS011;68821;59.134;37.894;2023-08-01T01:50:19;9.68;;;5.65;;
67516;SDS011;68821;59.134;37.894;2023-08-01T01:52:45;10.20;;;5.97;;
67516;SDS011;68821;59.134;37.894;2023-08-01T01:55:12;9.75;;;5.88;;
67516;SDS011;68821;59.134;37.894;2023-08-01T01:57:38;9.93;;;6.07;;
67516;SDS011;68821;59.134;37.894;2023-08-01T02:00:04;9.70;;;5.53;;
67516;SDS011;68821;59.134;37.894;2023-08-01T02:04:57;7.72;;;5.57;;
67516;SDS011;68821;59.134;37.894;2023-08-01T02:07:23;11.48;;;5.40;;
67516;SDS011;68821;59.134;37.894;2023-08-01T02:09:49;9.55;;;5.35;;
67516;SDS011;68821;59.134;37.894;2023-08-01T02:12:15;9.32;;;5.55;;
67516;SDS011;68821;59.134;37.894;2023-08-01T02:14:41;9.98;;;5.25;;
67516;SDS011;68821;59.134;37.894;2023-08-01T02:17:07;7.90;;;5.13;;
67516;SDS011;68821;59.134;37.894;2023-08-01T02:19:33;7.78;;;5.03;;
67516;SDS011;68821;59.134;37.894;2023-08-01T02:21:59;8.48;;;4.82;;
67516;SDS011;68821;59.134;37.894;2023-08-01T02:24:25;10.07;;;4.85;;
67516;SDS011;68821;59.134;37.894;2023-08-01T02:26:51;7.40;;;4.90;;
67516;SDS011;68821;59.134;37.894;2023-08-01T02:29:17;8.45;;;4.80;;
67516;SDS011;68821;59.134;37.894;2023-08-01T02:31:44;7.28;;;4.40;;
67516;SDS011;68821;59.134;37.894;2023-08-01T02:34:10;8.10;;;5.25;;
67516;SDS011;68821;59.134;37.894;2023-08-01T02:36:36;7.82;;;5.10;;
67516;SDS011;68821;59.134;37.894;2023-08-01T02:39:02;7.03;;;4.20;;
67516;SDS011;68821;59.134;37.894;2023-08-01T02:41:28;7.50;;;4.50;;
67516;SDS011;68821;59.134;37.894;2023-08-01T02:43:54;9.50;;;4.00;;
67516;SDS011;68821;59.134;37.894;2023-08-01T02:46:20;7.90;;;4.22;;
67516;SDS011;68821;59.134;37.894;2023-08-01T02:48:46;6.88;;;4.47;;
67516;SDS011;68821;59.134;37.894;2023-08-01T02:51:12;7.65;;;4.85;;
67516;SDS011;68821;59.134;37.894;2023-08-01T02:53:38;7.80;;;4.38;;
67516;SDS011;68821;59.134;37.894;2023-08-01T02:56:07;9.40;;;4.78;;
67516;SDS011;68821;59.134;37.894;2023-08-01T02:58:35;8.65;;;4.85;;
67516;SDS011;68821;59.134;37.894;2023-08-01T03:01:05;10.27;;;5.13;;
67516;SDS011;68821;59.134;37.894;2023-08-01T03:06:01;7.20;;;4.50;;
67516;SDS011;68821;59.134;37.894;2023-08-01T03:08:28;7.70;;;4.28;;
67516;SDS011;68821;59.134;37.894;2023-08-01T03:10:54;9.40;;;4.07;;
67516;SDS011;68821;59.134;37.894;2023-08-01T03:13:20;11.00;;;4.55;;
67516;SDS011;68821;59.134;37.894;2023-08-01T03:15:47;8.32;;;4.53;;
67516;SDS011;68821;59.134;37.894;2023-08-01T03:18:13;7.07;;;4.70;;
67516;SDS011;68821;59.134;37.894;2023-08-01T03:20:39;7.80;;;4.50;;
67516;SDS011;68821;59.134;37.894;2023-08-01T03:23:05;9.98;;;4.82;;
67516;SDS011;68821;59.134;37.894;2023-08-01T03:25:32;6.63;;;4.32;;
67516;SDS011;68821;59.134;37.894;2023-08-01T03:27:58;8.57;;;4.72;;
67516;SDS011;68821;59.134;37.894;2023-08-01T03:30:24;8.18;;;4.15;;
67516;SDS011;68821;59.134;37.894;2023-08-01T03:32:51;6.95;;;4.35;;
67516;SDS011;68821;59.134;37.894;2023-08-01T03:35:17;8.38;;;4.68;;
67516;SDS011;68821;59.134;37.894;2023-08-01T03:37:43;6.60;;;4.25;;
67516;SDS011;68821;59.134;37.894;2023-08-01T03:40:09;11.40;;;4.15;;
67516;SDS011;68821;59.134;37.894;2023-08-01T03:42:36;7.72;;;3.95;;
67516;SDS011;68821;59.134;37.894;2023-08-01T03:45:03;6.20;;;3.67;;
67516;SDS011;68821;59.134;37.894;2023-08-01T03:47:30;8.40;;;4.53;;
67516;SDS011;68821;59.134;37.894;2023-08-01T03:49:57;7.45;;;4.20;;
67516;SDS011;68821;59.134;37.894;2023-08-01T03:52:23;7.05;;;4.70;;
67516;SDS011;68821;59.134;37.894;2023-08-01T03:54:53;9.27;;;5.03;;
67516;SDS011;68821;59.134;37.894;2023-08-01T03:57:19;7.30;;;4.10;;
67516;SDS011;68821;59.134;37.894;2023-08-01T03:59:46;7.78;;;3.90;;
67516;SDS011;68821;59.134;37.894;2023-08-01T04:02:12;10.50;;;4.53;;
67516;SDS011;68821;59.134;37.894;2023-08-01T04:04:38;7.63;;;4.30;;
67516;SDS011;68821;59.134;37.894;2023-08-01T04:07:04;7.57;;;4.43;;
67516;SDS011;68821;59.134;37.894;2023-08-01T04:09:30;7.05;;;4.20;;
67516;SDS011;68821;59.134;37.894;2023-08-01T04:11:56;9.55;;;4.50;;
67516;SDS011;68821;59.134;37.894;2023-08-01T04:14:23;7.75;;;4.22;;
67516;SDS011;68821;59.134;37.894;2023-08-01T04:16:49;6.30;;;3.63;;
67516;SDS011;68821;59.134;37.894;2023-08-01T04:19:15;9.52;;;4.25;;
67516;SDS011;68821;59.134;37.894;2023-08-01T04:21:41;9.45;;;4.20;;
67516;SDS011;68821;59.134;37.894;2023-08-01T04:24:07;10.75;;;4.50;;
67516;SDS011;68821;59.134;37.894;2023-08-01T04:26:33;9.27;;;4.28;;
67516;SDS011;68821;59.134;37.894;2023-08-01T04:28:59;12.48;;;4.25;;
67516;SDS011;68821;59.134;37.894;2023-08-01T04:31:25;8.35;;;3.63;;
67516;SDS011;68821;59.134;37.894;2023-08-01T04:33:51;11.20;;;4.10;;
67516;SDS011;68821;59.134;37.894;2023-08-01T04:36:17;12.23;;;4.38;;
67516;SDS011;68821;59.134;37.894;2023-08-01T04:38:43;10.05;;;4.38;;
67516;SDS011;68821;59.134;37.894;2023-08-01T04:41:09;9.35;;;4.50;;
67516;SDS011;68821;59.134;37.894;2023-08-01T04:43:35;9.05;;;4.75;;
67516;SDS011;68821;59.134;37.894;2023-08-01T04:46:01;8.60;;;4.30;;
67516;SDS011;68821;59.134;37.894;2023-08-01T04:48:27;9.38;;;3.42;;
67516;SDS011;68821;59.134;37.894;2023-08-01T04:50:53;10.35;;;4.05;;
67516;SDS011;68821;59.134;37.894;2023-08-01T04:53:19;7.68;;;3.72;;
67516;SDS011;68821;59.134;37.894;2023-08-01T04:55:45;11.48;;;4.00;;
67516;SDS011;68821;59.134;37.894;2023-08-01T04:58:11;13.18;;;3.40;;
67516;SDS011;68821;59.134;37.894;2023-08-01T05:00:37;8.68;;;3.97;;
67516;SDS011;68821;59.134;37.894;2023-08-01T05:03:04;6.63;;;3.83;;
67516;SDS011;68821;59.134;37.894;2023-08-01T05:05:30;6.53;;;3.55;;
67516;SDS011;68821;59.134;37.894;2023-08-01T05:07:56;5.28;;;3.13;;
67516;SDS011;68821;59.134;37.894;2023-08-01T05:10:22;7.93;;;3.78;;
67516;SDS011;68821;59.134;37.894;2023-08-01T05:12:48;11.90;;;6.03;;
67516;SDS011;68821;59.134;37.894;2023-08-01T05:15:14;16.15;;;4.05;;
67516;SDS011;68821;59.134;37.894;2023-08-01T05:17:46;9.85;;;3.85;;
67516;SDS011;68821;59.134;37.894;2023-08-01T05:20:12;10.57;;;4.05;;
67516;SDS011;68821;59.134;37.894;2023-08-01T05:22:38;8.00;;;4.15;;
67516;SDS011;68821;59.134;37.894;2023-08-01T05:25:05;6.53;;;3.72;;
67516;SDS011;68821;59.134;37.894;2023-08-01T05:27:31;8.50;;;3.80;;
67516;SDS011;68821;59.134;37.894;2023-08-01T05:29:57;7.45;;;3.90;;
67516;SDS011;68821;59.134;37.894;2023-08-01T05:32:23;5.07;;;3.20;;
67516;SDS011;68821;59.134;37.894;2023-08-01T05:34:49;6.32;;;3.97;;
67516;SDS011;68821;59.134;37.894;2023-08-01T05:37:15;8.82;;;3.80;;
67516;SDS011;68821;59.134;37.894;2023-08-01T05:39:41;7.13;;;3.47;;
67516;SDS011;68821;59.134;37.894;2023-08-01T05:42:07;9.95;;;3.88;;
67516;SDS011;68821;59.134;37.894;2023-08-01T05:44:34;6.05;;;3.90;;
67516;SDS011;68821;59.134;37.894;2023-08-01T05:47:00;8.38;;;4.30;;
67516;SDS011;68821;59.134;37.894;2023-08-01T05:49:26;7.15;;;4.63;;
67516;SDS011;68821;59.134;37.894;2023-08-01T05:51:54;9.13;;;3.65;;
67516;SDS011;68821;59.134;37.894;2023-08-01T05:54:21;7.88;;;3.78;;
67516;SDS011;68821;59.134;37.894;2023-08-01T05:56:47;6.82;;;3.95;;
67516;SDS011;68821;59.134;37.894;2023-08-01T05:59:13;7.15;;;3.95;;
67516;SDS011;68821;59.134;37.894;2023-08-01T06:01:39;5.88;;;3.83;;
67516;SDS011;68821;59.134;37.894;2023-08-01T06:04:05;7.35;;;3.95;;
67516;SDS011;68821;59.134;37.894;2023-08-01T06:06:31;11.27;;;4.28;;
67516;SDS011;68821;59.134;37.894;2023-08-01T06:08:57;11.13;;;4.22;;
67516;SDS011;68821;59.134;37.894;2023-08-01T06:11:23;7.53;;;4.05;;
67516;SDS011;68821;59.134;37.894;2023-08-01T06:13:49;5.63;;;3.90;;
67516;SDS011;68821;59.134;37.894;2023-08-01T06:16:16;5.65;;;3.42;;
67516;SDS011;68821;59.134;37.894;2023-08-01T06:18:42;5.97;;;3.90;;
67516;SDS011;68821;59.134;37.894;2023-08-01T06:21:08;6.55;;;3.72;;
67516;SDS011;68821;59.134;37.894;2023-08-01T06:23:34;8.30;;;4.32;;
67516;SDS011;68821;59.134;37.894;2023-08-01T06:26:00;7.75;;;4.38;;
67516;SDS011;68821;59.134;37.894;2023-08-01T06:28:26;7.03;;;3.78;;
67516;SDS011;68821;59.134;37.894;2023-08-01T06:30:52;6.40;;;3.85;;
67516;SDS011;68821;59.134;37.894;2023-08-01T06:33:18;7.47;;;3.70;;
67516;SDS011;68821;59.134;37.894;2023-08-01T06:35:44;8.30;;;4.05;;
67516;SDS011;68821;59.134;37.894;2023-08-01T06:38:10;8.05;;;4.13;;
67516;SDS011;68821;59.134;37.894;2023-08-01T06:40:36;8.52;;;4.03;;
67516;SDS011;68821;59.134;37.894;2023-08-01T06:43:02;5.53;;;3.33;;
67516;SDS011;68821;59.134;37.894;2023-08-01T06:45:28;5.63;;;3.83;;
67516;SDS011;68821;59.134;37.894;2023-08-01T06:47:54;6.93;;;3.75;;
67516;SDS011;68821;59.134;37.894;2023-08-01T06:50:20;7.53;;;4.15;;
67516;SDS011;68821;59.134;37.894;2023-08-01T06:52:46;7.32;;;4.10;;
67516;SDS011;68821;59.134;37.894;2023-08-01T06:55:12;6.80;;;4.63;;
67516;SDS011;68821;59.134;37.894;2023-08-01T06:57:39;8.25;;;4.07;;
67516;SDS011;68821;59.134;37.894;2023-08-01T07:00:05;5.95;;;3.65;;
67516;SDS011;68821;59.134;37.894;2023-08-01T07:02:32;7.72;;;3.50;;
67516;SDS011;68821;59.134;37.894;2023-08-01T07:04:58;10.63;;;4.32;;
67516;SDS011;68821;59.134;37.894;2023-08-01T07:07:24;5.70;;;2.97;;
67516;SDS011;68821;59.134;37.894;2023-08-01T07:09:50;8.68;;;4.00;;
67516;SDS011;68821;59.134;37.894;2023-08-01T07:12:16;7.22;;;3.97;;
67516;SDS011;68821;59.134;37.894;2023-08-01T07:14:42;10.48;;;4.03;;
67516;SDS011;68821;59.134;37.894;2023-08-01T07:17:08;7.10;;;3.63;;
67516;SDS011;68821;59.134;37.894;2023-08-01T07:19:34;7.07;;;3.45;;
67516;SDS011;68821;59.134;37.894;2023-08-01T07:22:00;6.90;;;3.85;;
67516;SDS011;68821;59.134;37.894;2023-08-01T07:24:26;6.07;;;3.50;;
67516;SDS011;68821;59.134;37.894;2023-08-01T07:26:52;7.70;;;3.92;;
67516;SDS011;68821;59.134;37.894;2023-08-01T07:29:18;6.05;;;3.78;;
67516;SDS011;68821;59.134;37.894;2023-08-01T07:31:45;8.35;;;3.83;;
67516;SDS011;68821;59.134;37.894;2023-08-01T07:34:11;6.13;;;3.50;;
67516;SDS011;68821;59.134;37.894;2023-08-01T07:36:37;6.35;;;3.70;;
67516;SDS011;68821;59.134;37.894;2023-08-01T07:39:03;5.80;;;3.80;;
67516;SDS011;68821;59.134;37.894;2023-08-01T07:41:29;5.55;;;3.67;;
67516;SDS011;68821;59.134;37.894;2023-08-01T07:43:55;5.35;;;3.28;;
67516;SDS011;68821;59.134;37.894;2023-08-01T07:46:21;6.22;;;3.20;;
67516;SDS011;68821;59.134;37.894;2023-08-01T07:48:48;5.43;;;3.47;;
67516;SDS011;68821;59.134;37.894;2023-08-01T07:51:14;8.13;;;3.50;;
67516;SDS011;68821;59.134;37.894;2023-08-01T07:53:41;5.68;;;3.30;;
67516;SDS011;68821;59.134;37.894;2023-08-01T07:56:07;8.77;;;3.70;;
67516;SDS011;68821;59.134;37.894;2023-08-01T07:58:34;6.28;;;3.75;;
67516;SDS011;68821;59.134;37.894;2023-08-01T08:01:04;6.43;;;3.38;;
67516;SDS011;68821;59.134;37.894;2023-08-01T08:03:33;6.10;;;3.33;;
67516;SDS011;68821;59.134;37.894;2023-08-01T08:05:59;5.70;;;3.33;;
67516;SDS011;68821;59.134;37.894;2023-08-01T08:08:25;6.47;;;3.40;;
67516;SDS011;68821;59.134;37.894;2023-08-01T08:10:52;5.80;;;3.03;;
67516;SDS011;68821;59.134;37.894;2023-08-01T08:13:18;6.15;;;3.17;;
67516;SDS011;68821;59.134;37.894;2023-08-01T08:15:45;6.88;;;4.20;;
67516;SDS011;68821;59.134;37.894;2023-08-01T08:18:11;6.00;;;2.88;;
67516;SDS011;68821;59.134;37.894;2023-08-01T08:20:41;5.25;;;3.10;;
67516;SDS011;68821;59.134;37.894;2023-08-01T08:23:09;5.75;;;3.15;;
67516;SDS011;68821;59.134;37.894;2023-08-01T08:28:01;6.65;;;3.25;;
67516;SDS011;68821;59.134;37.894;2023-08-01T08:30:27;4.90;;;2.90;;
67516;SDS011;68821;59.134;37.894;2023-08-01T08:32:53;5.53;;;2.78;;
67516;SDS011;68821;59.134;37.894;2023-08-01T08:35:19;7.55;;;3.22;;
67516;SDS011;68821;59.134;37.894;2023-08-01T08:37:45;6.97;;;3.17;;
67516;SDS011;68821;59.134;37.894;2023-08-01T08:40:12;8.85;;;3.35;;
67516;SDS011;68821;59.134;37.894;2023-08-01T08:42:38;6.25;;;3.47;;
67516;SDS011;68821;59.134;37.894;2023-08-01T08:47:34;6.43;;;3.20;;
67516;SDS011;68821;59.134;37.894;2023-08-01T08:50:03;5.50;;;3.10;;
67516;SDS011;68821;59.134;37.894;2023-08-01T08:52:30;4.72;;;3.00;;
67516;SDS011;68821;59.134;37.894;2023-08-01T08:54:56;7.30;;;3.42;;
67516;SDS011;68821;59.134;37.894;2023-08-01T08:57:23;6.07;;;3.35;;
67516;SDS011;68821;59.134;37.894;2023-08-01T09:02:17;4.57;;;2.85;;
67516;SDS011;68821;59.134;37.894;2023-08-01T09:04:43;4.78;;;3.20;;
67516;SDS011;68821;59.134;37.894;2023-08-01T09:07:10;6.78;;;3.22;;
67516;SDS011;68821;59.134;37.894;2023-08-01T09:09:39;5.68;;;3.03;;
67516;SDS011;68821;59.134;37.894;2023-08-01T09:12:05;11.57;;;4.65;;
67516;SDS011;68821;59.134;37.894;2023-08-01T09:14:33;5.10;;;3.10;;
67516;SDS011;68821;59.134;37.894;2023-08-01T09:17:07;4.90;;;3.05;;
67516;SDS011;68821;59.134;37.894;2023-08-01T09:19:36;7.07;;;2.85;;
67516;SDS011;68821;59.134;37.894;2023-08-01T09:22:09;4.80;;;3.10;;
67516;SDS011;68821;59.134;37.894;2023-08-01T09:24:36;5.40;;;3.30;;
67516;SDS011;68821;59.134;37.894;2023-08-01T09:27:02;6.72;;;2.90;;
67516;SDS011;68821;59.134;37.894;2023-08-01T09:29:34;5.43;;;3.00;;
67516;SDS011;68821;59.134;37.894;2023-08-01T09:32:00;4.57;;;2.90;;
67516;SDS011;68821;59.134;37.894;2023-08-01T09:34:38;8.50;;;2.97;;
67516;SDS011;68821;59.134;37.894;2023-08-01T09:37:04;4.82;;;2.92;;
67516;SDS011;68821;59.134;37.894;2023-08-01T09:39:30;6.32;;;2.88;;
67516;SDS011;68821;59.134;37.894;2023-08-01T09:41:59;5.20;;;2.67;;
67516;SDS011;68821;59.134;37.894;2023-08-01T09:44:27;4.63;;;2.90;;
67516;SDS011;68821;59.134;37.894;2023-08-01T09:47:01;7.75;;;2.88;;
67516;SDS011;68821;59.134;37.894;2023-08-01T09:49:29;4.78;;;2.78;;
67516;SDS011;68821;59.134;37.894;2023-08-01T09:51:56;8.20;;;2.75;;
67516;SDS011;68821;59.134;37.894;2023-08-01T09:54:23;4.55;;;2.80;;
67516;SDS011;68821;59.134;37.894;2023-08-01T09:56:51;5.05;;;2.92;;
67516;SDS011;68821;59.134;37.894;2023-08-01T09:59:20;7.45;;;3.47;;
67516;SDS011;68821;59.134;37.894;2023-08-01T10:01:48;5.95;;;2.85;;
67516;SDS011;68821;59.134;37.894;2023-08-01T10:04:34;11.98;;;3.00;;
67516;SDS011;68821;59.134;37.894;2023-08-01T10:07:08;6.43;;;3.10;;
67516;SDS011;68821;59.134;37.894;2023-08-01T10:09:37;7.97;;;3.10;;
67516;SDS011;68821;59.134;37.894;2023-08-01T10:12:04;4.90;;;2.75;;
67516;SDS011;68821;59.134;37.894;2023-08-01T10:14:34;6.25;;;3.05;;
67516;SDS011;68821;59.134;37.894;2023-08-01T10:17:02;5.30;;;3.10;;
67516;SDS011;68821;59.134;37.894;2023-08-01T10:19:29;5.65;;;2.67;;
67516;SDS011;68821;59.134;37.894;2023-08-01T10:21:58;9.18;;;2.92;;
67516;SDS011;68821;59.134;37.894;2023-08-01T10:24:25;7.57;;;2.95;;
67516;SDS011;68821;59.134;37.894;2023-08-01T10:26:54;5.57;;;3.05;;
67516;SDS011;68821;59.134;37.894;2023-08-01T10:29:20;8.75;;;3.10;;
67516;SDS011;68821;59.134;37.894;2023-08-01T10:31:50;4.97;;;2.47;;
67516;SDS011;68821;59.134;37.894;2023-08-01T10:34:19;7.75;;;2.80;;
67516;SDS011;68821;59.134;37.894;2023-08-01T10:36:55;9.07;;;2.78;;
67516;SDS011;68821;59.134;37.894;2023-08-01T10:39:22;4.30;;;2.60;;
67516;SDS011;68821;59.134;37.894;2023-08-01T10:41:59;5.85;;;2.72;;
67516;SDS011;68821;59.134;37.894;2023-08-01T10:44:26;5.10;;;3.10;;
67516;SDS011;68821;59.134;37.894;2023-08-01T10:46:54;6.55;;;3.22;;
67516;SDS011;68821;59.134;37.894;2023-08-01T10:54:44;6.38;;;2.92;;
67516;SDS011;68821;59.134;37.894;2023-08-01T10:57:17;4.85;;;2.78;;
67516;SDS011;68821;59.134;37.894;2023-08-01T10:59:44;6.50;;;2.78;;
67516;SDS011;68821;59.134;37.894;2023-08-01T11:02:10;6.53;;;3.95;;
67516;SDS011;68821;59.134;37.894;2023-08-01T11:04:36;5.55;;;3.22;;
67516;SDS011;68821;59.134;37.894;2023-08-01T11:07:03;8.75;;;3.47;;
67516;SDS011;68821;59.134;37.894;2023-08-01T11:09:30;6.10;;;2.95;;
67516;SDS011;68821;59.134;37.894;2023-08-01T11:11:57;5.53;;;3.20;;
67516;SDS011;68821;59.134;37.894;2023-08-01T11:14:26;5.13;;;2.80;;
67516;SDS011;68821;59.134;37.894;2023-08-01T11:16:56;15.90;;;3.83;;
67516;SDS011;68821;59.134;37.894;2023-08-01T11:19:26;6.30;;;3.33;;
67516;SDS011;68821;59.134;37.894;2023-08-01T11:21:54;6.32;;;4.07;;
67516;SDS011;68821;59.134;37.894;2023-08-01T11:24:25;5.30;;;3.50;;
67516;SDS011;68821;59.134;37.894;2023-08-01T11:26:52;9.68;;;4.22;;
67516;SDS011;68821;59.134;37.894;2023-08-01T11:29:19;5.97;;;2.60;;
67516;SDS011;68821;59.134;37.894;2023-08-01T11:31:53;6.82;;;3.40;;
67516;SDS011;68821;59.134;37.894;2023-08-01T11:34:23;9.05;;;3.78;;
67516;SDS011;68821;59.134;37.894;2023-08-01T11:36:49;7.10;;;3.83;;
67516;SDS011;68821;59.134;37.894;2023-08-01T11:39:16;7.80;;;3.70;;
67516;SDS011;68821;59.134;37.894;2023-08-01T11:41:43;8.38;;;3.30;;
67516;SDS011;68821;59.134;37.894;2023-08-01T11:44:10;6.35;;;3.50;;
67516;SDS011;68821;59.134;37.894;2023-08-01T11:46:37;4.32;;;3.60;;
67516;SDS011;68821;59.134;37.894;2023-08-01T11:49:05;6.70;;;3.42;;
67516;SDS011;68821;59.134;37.894;2023-08-01T11:51:38;6.32;;;4.47;;
67516;SDS011;68821;59.134;37.894;2023-08-01T11:54:06;7.00;;;3.58;;
67516;SDS011;68821;59.134;37.894;2023-08-01T11:56:33;9.65;;;4.20;;
67516;SDS011;68821;59.134;37.894;2023-08-01T11:58:59;6.28;;;3.10;;
67516;SDS011;68821;59.134;37.894;2023-08-01T12:01:37;5.03;;;3.45;;
67516;SDS011;68821;59.134;37.894;2023-08-01T12:04:07;5.53;;;3.30;;
67516;SDS011;68821;59.134;37.894;2023-08-01T12:06:33;5.75;;;3.80;;
67516;SDS011;68821;59.134;37.894;2023-08-01T12:09:10;6.68;;;3.42;;
67516;SDS011;68821;59.134;37.894;2023-08-01T12:11:38;7.25;;;3.10;;
67516;SDS011;68821;59.134;37.894;2023-08-01T12:14:09;5.70;;;2.83;;
67516;SDS011;68821;59.134;37.894;2023-08-01T12:16:38;7.10;;;3.08;;
67516;SDS011;68821;59.134;37.894;2023-08-01T12:19:07;6.65;;;2.90;;
67516;SDS011;68821;59.134;37.894;2023-08-01T12:21:34;5.40;;;3.58;;
67516;SDS011;68821;59.134;37.894;2023-08-01T12:24:01;9.68;;;3.10;;
67516;SDS011;68821;59.134;37.894;2023-08-01T12:26:27;4.97;;;2.90;;
67516;SDS011;68821;59.134;37.894;2023-08-01T12:31:20;5.28;;;2.88;;
67516;SDS011;68821;59.134;37.894;2023-08-01T12:33:47;5.38;;;3.28;;
67516;SDS011;68821;59.134;37.894;2023-08-01T12:36:14;4.30;;;2.80;;
67516;SDS011;68821;59.134;37.894;2023-08-01T12:38:41;5.18;;;3.03;;
67516;SDS011;68821;59.134;37.894;2023-08-01T12:41:07;10.73;;;4.90;;
67516;SDS011;68821;59.134;37.894;2023-08-01T12:43:34;7.22;;;3.78;;
67516;SDS011;68821;59.134;37.894;2023-08-01T12:48:26;9.02;;;3.38;;
67516;SDS011;68821;59.134;37.894;2023-08-01T12:50:53;10.30;;;4.10;;
67516;SDS011;68821;59.134;37.894;2023-08-01T12:53:20;6.55;;;3.28;;
67516;SDS011;68821;59.134;37.894;2023-08-01T12:55:48;5.90;;;3.17;;
67516;SDS011;68821;59.134;37.894;2023-08-01T12:58:15;9.75;;;3.38;;
67516;SDS011;68821;59.134;37.894;2023-08-01T13:00:42;5.88;;;3.25;;
67516;SDS011;68821;59.134;37.894;2023-08-01T13:03:09;5.57;;;3.35;;
67516;SDS011;68821;59.134;37.894;2023-08-01T13:05:36;5.88;;;3.20;;
67516;SDS011;68821;59.134;37.894;2023-08-01T13:08:03;5.40;;;2.85;;
67516;SDS011;68821;59.134;37.894;2023-08-01T13:10:30;4.68;;;3.00;;
67516;SDS011;68821;59.134;37.894;2023-08-01T13:12:58;6.50;;;3.20;;
67516;SDS011;68821;59.134;37.894;2023-08-01T13:15:24;8.70;;;3.63;;
67516;SDS011;68821;59.134;37.894;2023-08-01T13:17:51;5.93;;;3.35;;
67516;SDS011;68821;59.134;37.894;2023-08-01T13:20:17;5.55;;;3.20;;
67516;SDS011;68821;59.134;37.894;2023-08-01T13:22:48;7.07;;;3.03;;
67516;SDS011;68821;59.134;37.894;2023-08-01T13:25:15;8.73;;;4.50;;
67516;SDS011;68821;59.134;37.894;2023-08-01T13:27:42;5.68;;;3.17;;
67516;SDS011;68821;59.134;37.894;2023-08-01T13:30:08;8.25;;;3.58;;
67516;SDS011;68821;59.134;37.894;2023-08-01T13:32:35;6.43;;;3.70;;
67516;SDS011;68821;59.134;37.894;2023-08-01T13:35:01;5.60;;;3.28;;
67516;SDS011;68821;59.134;37.894;2023-08-01T13:37:28;12.40;;;4.43;;
67516;SDS011;68821;59.134;37.894;2023-08-01T13:39:57;6.63;;;3.35;;
67516;SDS011;68821;59.134;37.894;2023-08-01T13:42:23;16.52;;;5.28;;
67516;SDS011;68821;59.134;37.894;2023-08-01T13:44:49;7.45;;;3.50;;
67516;SDS011;68821;59.134;37.894;2023-08-01T13:47:15;6.07;;;3.13;;
67516;SDS011;68821;59.134;37.894;2023-08-01T13:49:41;21.38;;;4.55;;
67516;SDS011;68821;59.134;37.894;2023-08-01T13:52:07;8.88;;;3.50;;
67516;SDS011;68821;59.134;37.894;2023-08-01T13:54:33;5.68;;;2.92;;
67516;SDS011;68821;59.134;37.894;2023-08-01T13:57:00;4.75;;;3.17;;
67516;SDS011;68821;59.134;37.894;2023-08-01T13:59:26;8.48;;;2.95;;
67516;SDS011;68821;59.134;37.894;2023-08-01T14:04:18;4.85;;;3.20;;
67516;SDS011;68821;59.134;37.894;2023-08-01T14:06:44;6.68;;;3.17;;
67516;SDS011;68821;59.134;37.894;2023-08-01T14:09:10;5.95;;;2.85;;
67516;SDS011;68821;59.134;37.894;2023-08-01T14:11:36;5.53;;;3.13;;
67516;SDS011;68821;59.134;37.894;2023-08-01T14:14:03;4.95;;;2.92;;
67516;SDS011;68821;59.134;37.894;2023-08-01T14:16:29;6.80;;;3.08;;
67516;SDS011;68821;59.134;37.894;2023-08-01T14:18:56;4.22;;;2.80;;
67516;SDS011;68821;59.134;37.894;2023-08-01T14:21:22;7.07;;;2.72;;
67516;SDS011;68821;59.134;37.894;2023-08-01T14:23:48;8.68;;;3.22;;
67516;SDS011;68821;59.134;37.894;2023-08-01T14:26:14;7.55;;;3.17;;
67516;SDS011;68821;59.134;37.894;2023-08-01T14:28:40;5.72;;;3.15;;
67516;SDS011;68821;59.134;37.894;2023-08-01T14:33:35;6.35;;;3.75;;
67516;SDS011;68821;59.134;37.894;2023-08-01T14:36:01;7.90;;;3.30;;
67516;SDS011;68821;59.134;37.894;2023-08-01T14:38:27;8.85;;;3.20;;
67516;SDS011;68821;59.134;37.894;2023-08-01T14:40:53;12.02;;;2.90;;
67516;SDS011;68821;59.134;37.894;2023-08-01T14:43:19;14.75;;;3.65;;
67516;SDS011;68821;59.134;37.894;2023-08-01T14:45:46;6.38;;;3.20;;
67516;SDS011;68821;59.134;37.894;2023-08-01T14:48:12;5.60;;;3.22;;
67516;SDS011;68821;59.134;37.894;2023-08-01T14:50:38;4.93;;;2.92;;
67516;SDS011;68821;59.134;37.894;2023-08-01T14:53:04;5.20;;;3.13;;
67516;SDS011;68821;59.134;37.894;2023-08-01T14:55:32;4.70;;;2.88;;
67516;SDS011;68821;59.134;37.894;2023-08-01T14:57:59;8.20;;;3.35;;
67516;SDS011;68821;59.134;37.894;2023-08-01T15:00:25;7.38;;;3.10;;